Time;durP1;ratioP1;P1;durP2;ratioP2;P2;SDS_P1;SDS_P2;PMS_P1;PMS_P2;Temp;Humidity;BMP_temperature;BMP_pressure;BME280_temperature;BME280_humidity;BME280_pressure;Samples;Min_cycle;Max_cycle;Signal;HPM_P1;HPM_P2
2021/07/12 00:00:07;;;;;;;;;;;;;;;;;;5049171;28;19924;-71
2021/07/12 00:02:34;;;;;;;;;;;;;;;;;;5048318;28;19933;-72
2021/07/12 00:05:01;;;;;;;;;;;;;;;;;;5046448;28;19928;-70
2021/07/12 00:07:28;;;;;;;;;;;;;;;;;;5045515;28;19939;-71
2021/07/12 00:09:55;;;;;;;;;;;;;;;;;;5048013;28;19925;-71
2021/07/12 00:12:22;;;;;;;;;;;;;;;;;;5041544;28;19925;-70
2021/07/12 00:14:49;;;;;;;;;;;;;;;;;;5049119;28;20389;-71
2021/07/12 00:17:16;;;;;;;;;;;;;;;;;;5041505;28;19932;-70
2021/07/12 00:19:43;;;;;;;;;;;;;;;;;;5047198;28;19924;-71
2021/07/12 00:22:09;;;;;;;;;;;;;;;;;;5048434;28;19931;-71
2021/07/12 00:24:36;;;;;;;;;;;;;;;;;;5048773;28;19925;-71
2021/07/12 00:27:03;;;;;;;;;;;;;;;;;;5048164;28;19925;-70
2021/07/12 00:29:30;;;;;;;;;;;;;;;;;;5045033;28;19932;-70
2021/07/12 00:31:57;;;;;;;;;;;;;;;;;;5049019;28;19925;-70
2021/07/12 00:34:24;;;;;;;;;;;;;;;;;;5046234;28;19925;-70
2021/07/12 00:36:51;;;;;;;;;;;;;;;;;;5047411;28;19925;-71
2021/07/12 00:39:18;;;;;;;;;;;;;;;;;;5046406;28;19935;-72
2021/07/12 00:41:45;;;;;;;;;;;;;;;;;;5050229;28;19925;-72
2021/07/12 00:44:12;;;;;;;;;;;;;;;;;;5046925;28;19933;-71
2021/07/12 00:46:39;;;;;;;;;;;;;;;;;;5050562;28;19933;-70
2021/07/12 00:49:06;;;;;;;;;;;;;;;;;;5049287;28;20257;-71
2021/07/12 00:51:33;;;;;;;;;;;;;;;;;;5048523;28;19925;-72
2021/07/12 00:54:00;;;;;;;;;;;;;;;;;;5047910;28;19925;-70
2021/07/12 00:56:27;;;;;;;;;;;;;;;;;;5033636;28;19925;-71
2021/07/12 00:58:54;;;;;;;;;;;;;;;;;;5037793;28;20393;-70
2021/07/12 01:01:20;;;;;;;;;;;;;;;;;;5044848;28;19931;-70
2021/07/12 01:03:47;;;;;;;;;;;;;;;;;;5051064;28;19931;-71
2021/07/12 01:06:14;;;;;;;;;;;;;;;;;;5050945;28;19925;-71
2021/07/12 01:08:41;;;;;;;;;;;;;;;;;;5048215;28;19925;-72
2021/07/12 01:11:08;;;;;;;;;;;;;;;;;;5042272;28;19933;-72
2021/07/12 01:13:35;;;;;;;;;;;;;;;;;;5043027;28;19929;-72
2021/07/12 01:16:02;;;;;;;;;;;;;;;;;;5043125;28;19929;-71
2021/07/12 01:18:29;;;;;;;;;;;;;;;;;;5051202;28;19932;-71
2021/07/12 01:21:02;;;;;;;;;;;;;;;;;;5048532;28;19932;-70
2021/07/12 01:23:29;;;;;;;;;;;;;;;;;;5044393;28;19987;-71
2021/07/12 01:25:56;;;;;;;;;;;;;;;;;;5045193;28;20407;-73
2021/07/12 01:28:23;;;;;;;;;;;;;;;;;;5048323;28;19931;-72
2021/07/12 01:30:50;;;;;;;;;;;;;;;;;;5046776;28;19933;-73
2021/07/12 01:33:17;;;;;;;;;;;;;;;;;;5049766;28;19924;-71
2021/07/12 01:35:44;;;;;;;;;;;;;;;;;;5048159;28;19924;-72
2021/07/12 01:38:11;;;;;;;;;;;;;;;;;;5045162;28;19928;-71
2021/07/12 01:40:38;;;;;;;;;;;;;;;;;;5049264;28;19925;-70
2021/07/12 01:43:07;;;;;;;;;;;;;;;;;;5050554;28;19925;-71
2021/07/12 01:45:34;;;;;;;;;;;;;;;;;;5048381;28;20015;-71
2021/07/12 01:48:02;;;;;;;;;;;;;;;;;;5047015;28;19932;-69
2021/07/12 01:50:29;;;;;;;;;;;;;;;;;;5049485;28;20021;-69
2021/07/12 01:52:56;;;;;;;;;;;;;;;;;;5042891;28;19931;-69
2021/07/12 01:55:23;;;;;;;;;;;;;;;;;;5046788;28;20492;-69
2021/07/12 01:57:50;;;;;;;;;;;;;;;;;;5047878;28;19932;-69
2021/07/12 02:00:16;;;;;;;;;;;;;;;;;;5044382;28;19931;-69
2021/07/12 02:02:43;;;;;;;;;;;;;;;;;;5047621;28;19925;-69
2021/07/12 02:05:10;;;;;;;;;;;;;;;;;;5048460;28;20309;-68
2021/07/12 02:07:37;;;;;;;;;;;;;;;;;;5045190;28;19925;-69
2021/07/12 02:10:04;;;;;;;;;;;;;;;;;;5047157;28;19925;-69
2021/07/12 02:12:31;;;;;;;;;;;;;;;;;;5043645;28;19933;-69
2021/07/12 02:14:58;;;;;;;;;;;;;;;;;;5051390;28;19925;-69
2021/07/12 02:17:25;;;;;;;;;;;;;;;;;;5048247;28;19925;-68
2021/07/12 02:19:52;;;;;;;;;;;;;;;;;;5045037;28;19929;-69
2021/07/12 02:22:19;;;;;;;;;;;;;;;;;;5047460;28;19928;-70
2021/07/12 02:24:46;;;;;;;;;;;;;;;;;;5044190;28;19929;-68
2021/07/12 02:27:13;;;;;;;;;;;;;;;;;;5048067;28;19928;-68
2021/07/12 02:29:40;;;;;;;;;;;;;;;;;;5052263;28;20409;-69
2021/07/12 02:32:07;;;;;;;;;;;;;;;;;;5051947;28;19924;-70
2021/07/12 02:34:33;;;;;;;;;;;;;;;;;;5045600;28;20015;-69
2021/07/12 02:37:00;;;;;;;;;;;;;;;;;;5042036;28;19948;-69
2021/07/12 02:39:27;;;;;;;;;;;;;;;;;;5044577;28;19925;-69
2021/07/12 02:41:54;;;;;;;;;;;;;;;;;;5044735;28;19932;-69
2021/07/12 02:44:21;;;;;;;;;;;;;;;;;;5041277;28;20297;-69
2021/07/12 02:46:48;;;;;;;;;;;;;;;;;;5052197;28;19974;-69
2021/07/12 02:49:15;;;;;;;;;;;;;;;;;;5049624;28;19924;-69
2021/07/12 02:51:42;;;;;;;;;;;;;;;;;;5039000;28;19924;-73
2021/07/12 02:54:09;;;;;;;;;;;;;;;;;;5044183;28;19929;-69
2021/07/12 02:56:36;;;;;;;;;;;;;;;;;;5047159;28;20289;-69
2021/07/12 02:59:03;;;;;;;;;;;;;;;;;;5050025;28;19925;-69
2021/07/12 03:01:30;;;;;;;;;;;;;;;;;;5050399;28;19937;-69
2021/07/12 03:03:57;;;;;;;;;;;;;;;;;;5043191;28;19933;-68
2021/07/12 03:06:23;;;;;;;;;;;;;;;;;;5042704;28;20008;-70
2021/07/12 03:08:50;;;;;;;;;;;;;;;;;;5048910;28;19925;-70
2021/07/12 03:11:17;;;;;;;;;;;;;;;;;;5041109;28;19931;-69
2021/07/12 03:13:44;;;;;;;;;;;;;;;;;;5042162;28;20299;-69
2021/07/12 03:16:11;;;;;;;;;;;;;;;;;;5045439;28;19925;-70
2021/07/12 03:18:38;;;;;;;;;;;;;;;;;;5048223;28;19931;-68
2021/07/12 03:21:05;;;;;;;;;;;;;;;;;;5039618;28;19932;-68
2021/07/12 03:23:32;;;;;;;;;;;;;;;;;;5043715;28;19925;-69
2021/07/12 03:25:59;;;;;;;;;;;;;;;;;;5044964;28;19925;-69
2021/07/12 03:28:26;;;;;;;;;;;;;;;;;;5045061;28;19943;-69
2021/07/12 03:30:53;;;;;;;;;;;;;;;;;;5051165;28;20402;-69
2021/07/12 03:33:20;;;;;;;;;;;;;;;;;;5046994;28;19999;-69
2021/07/12 03:35:47;;;;;;;;;;;;;;;;;;5063279;22;19917;-65
2021/07/12 03:38:14;;;;;;;;;;;;;;;;;;5084379;28;19924;-66
2021/07/12 03:40:41;;;;;;;;;;;;;;;;;;5089615;28;19993;-65
2021/07/12 03:43:08;;;;;;;;;;;;;;;;;;5092886;28;19940;-66
2021/07/12 03:45:35;;;;;;;;;;;;;;;;;;5085629;28;19924;-66
2021/07/12 03:48:02;;;;;;;;;;;;;;;;;;5067018;28;20406;-67
2021/07/12 03:50:28;;;;;;;;;;;;;;;;;;5060920;28;19924;-65
2021/07/12 03:52:55;;;;;;;;;;;;;;;;;;5069964;28;19935;-65
2021/07/12 03:55:22;;;;;;;;;;;;;;;;;;5070989;28;20017;-66
2021/07/12 03:57:49;;;;;;;;;;;;;;;;;;5064900;28;19928;-66
2021/07/12 04:00:16;;;;;;;;;;;;;;;;;;5071106;28;19947;-67
2021/07/12 04:02:43;;;;;;;;;;;;;;;;;;5068868;28;19925;-65
2021/07/12 04:05:10;;;;;;;;;;;;;;;;;;5066394;28;19937;-66
2021/07/12 04:07:37;;;;;;;;;;;;;;;;;;5070729;28;19970;-66
2021/07/12 04:10:04;;;;;;;;;;;;;;;;;;5066671;28;20007;-67
2021/07/12 04:12:31;;;;;;;;;;;;;;;;;;5068455;28;19928;-67
2021/07/12 04:14:58;;;;;;;;;;;;;;;;;;5064851;28;19925;-67
2021/07/12 04:17:25;;;;;;;;;;;;;;;;;;5065948;28;20301;-66
2021/07/12 04:19:52;;;;;;;;;;;;;;;;;;5067528;28;20392;-66
2021/07/12 04:22:19;;;;;;;;;;;;;;;;;;5070671;28;19932;-67
2021/07/12 04:24:46;;;;;;;;;;;;;;;;;;5066524;28;19929;-66
2021/07/12 04:27:13;;;;;;;;;;;;;;;;;;5066892;28;19932;-66
2021/07/12 04:29:40;;;;;;;;;;;;;;;;;;5065880;28;20301;-66
2021/07/12 04:32:07;;;;;;;;;;;;;;;;;;5068554;28;20024;-67
2021/07/12 04:34:34;;;;;;;;;;;;;;;;;;5060804;28;19924;-65
2021/07/12 04:37:01;;;;;;;;;;;;;;;;;;5058491;28;19925;-66
2021/07/12 04:39:28;;;;;;;;;;;;;;;;;;5063406;28;20380;-66
2021/07/12 04:41:55;;;;;;;;;;;;;;;;;;5060834;28;19925;-66
2021/07/12 04:44:22;;;;;;;;;;;;;;;;;;5059578;28;19990;-66
2021/07/12 04:46:48;;;;;;;;;;;;;;;;;;5064640;28;19925;-66
2021/07/12 04:49:15;;;;;;;;;;;;;;;;;;5066810;28;19947;-66
2021/07/12 04:51:42;;;;;;;;;;;;;;;;;;5062077;28;19931;-66
2021/07/12 04:54:09;;;;;;;;;;;;;;;;;;5069356;28;19924;-67
2021/07/12 04:56:36;;;;;;;;;;;;;;;;;;5069816;28;19929;-67
2021/07/12 04:59:05;;;;;;;;;;;;;;;;;;5069211;28;19932;-66
2021/07/12 05:01:33;;;;;;;;;;;;;;;;;;5069291;28;20444;-67
2021/07/12 05:04:00;;;;;;;;;;;;;;;;;;5061121;28;20019;-67
2021/07/12 05:06:27;;;;;;;;;;;;;;;;;;5068622;28;19925;-65
2021/07/12 05:08:54;;;;;;;;;;;;;;;;;;5068609;28;19931;-67
2021/07/12 05:11:21;;;;;;;;;;;;;;;;;;5067919;28;19939;-65
2021/07/12 05:13:48;;;;;;;;;;;;;;;;;;5061805;28;20340;-65
2021/07/12 05:16:15;;;;;;;;;;;;;;;;;;5062860;28;19932;-66
2021/07/12 05:18:42;;;;;;;;;;;;;;;;;;5067812;28;19932;-66
2021/07/12 05:21:09;;;;;;;;;;;;;;;;;;5058011;28;20204;-66
2021/07/12 05:23:37;;;;;;;;;;;;;;;;;;5065872;28;19943;-66
2021/07/12 05:26:04;;;;;;;;;;;;;;;;;;5066491;28;19933;-66
2021/07/12 05:28:31;;;;;;;;;;;;;;;;;;5062899;28;19925;-67
2021/07/12 05:30:58;;;;;;;;;;;;;;;;;;5061847;28;20364;-66
2021/07/12 05:33:25;;;;;;;;;;;;;;;;;;5062267;28;19928;-67
2021/07/12 05:35:52;;;;;;;;;;;;;;;;;;5060383;28;19933;-67
2021/07/12 05:38:18;;;;;;;;;;;;;;;;;;5063423;28;19924;-66
2021/07/12 05:40:45;;;;;;;;;;;;;;;;;;5060535;28;19924;-66
2021/07/12 05:43:12;;;;;;;;;;;;;;;;;;5062401;28;19924;-66
2021/07/12 05:45:39;;;;;;;;;;;;;;;;;;5059523;28;19925;-66
2021/07/12 05:48:08;;;;;;;;;;;;;;;;;;5061325;28;21440;-66
2021/07/12 05:50:35;;;;;;;;;;;;;;;;;;5058641;28;19930;-66
2021/07/12 05:53:02;;;;;;;;;;;;;;;;;;5065777;28;20412;-65
2021/07/12 05:55:29;;;;;;;;;;;;;;;;;;5062210;28;20291;-65
2021/07/12 05:57:56;;;;;;;;;;;;;;;;;;5055807;28;19952;-66
2021/07/12 06:00:24;;;;;;;;;;;;;;;;;;5064726;28;19925;-66
2021/07/12 06:02:51;;;;;;;;;;;;;;;;;;5056819;28;19985;-66
2021/07/12 06:05:18;;;;;;;;;;;;;;;;;;5062809;28;19925;-66
2021/07/12 06:07:45;;;;;;;;;;;;;;;;;;5066296;28;19925;-66
2021/07/12 06:10:12;;;;;;;;;;;;;;;;;;5063980;28;19994;-65
2021/07/12 06:12:40;;;;;;;;;;;;;;;;;;5066447;28;19925;-66
2021/07/12 06:15:07;;;;;;;;;;;;;;;;;;5063313;28;19932;-66
2021/07/12 06:17:34;;;;;;;;;;;;;;;;;;5063320;28;19925;-66
2021/07/12 06:20:01;;;;;;;;;;;;;;;;;;5065396;28;19925;-67
2021/07/12 06:22:28;;;;;;;;;;;;;;;;;;5058167;28;20202;-66
2021/07/12 06:24:55;;;;;;;;;;;;;;;;;;5063497;28;20011;-66
2021/07/12 06:27:22;;;;;;;;;;;;;;;;;;5067707;28;19933;-66
2021/07/12 06:29:49;;;;;;;;;;;;;;;;;;5064390;28;19925;-66
2021/07/12 06:32:16;;;;;;;;;;;;;;;;;;5059711;28;19924;-67
2021/07/12 06:34:44;;;;;;;;;;;;;;;;;;5057332;28;19932;-66
2021/07/12 06:37:11;;;;;;;;;;;;;;;;;;5062868;28;19933;-67
2021/07/12 06:39:39;;;;;;;;;;;;;;;;;;5065125;28;19924;-66
2021/07/12 06:42:06;;;;;;;;;;;;;;;;;;5065095;28;19928;-66
2021/07/12 06:44:33;;;;;;;;;;;;;;;;;;5060898;28;19951;-67
2021/07/12 06:47:00;;;;;;;;;;;;;;;;;;5058600;28;19931;-66
2021/07/12 06:49:27;;;;;;;;;;;;;;;;;;5063037;28;20399;-66
2021/07/12 06:51:55;;;;;;;;;;;;;;;;;;5062842;28;20007;-65
2021/07/12 06:54:22;;;;;;;;;;;;;;;;;;5059631;28;19933;-65
2021/07/12 06:56:49;;;;;;;;;;;;;;;;;;5063523;28;20377;-65
2021/07/12 06:59:16;;;;;;;;;;;;;;;;;;5060771;28;19931;-64
2021/07/12 07:01:44;;;;;;;;;;;;;;;;;;5060827;28;19932;-65
2021/07/12 07:04:11;;;;;;;;;;;;;;;;;;5066389;28;20320;-65
2021/07/12 07:06:38;;;;;;;;;;;;;;;;;;5061487;28;19925;-65
2021/07/12 07:09:05;;;;;;;;;;;;;;;;;;5063299;28;20019;-62
2021/07/12 07:11:33;;;;;;;;;;;;;;;;;;5065195;28;19933;-65
2021/07/12 07:14:00;;;;;;;;;;;;;;;;;;5067092;28;20019;-65
2021/07/12 07:16:27;;;;;;;;;;;;;;;;;;5064587;28;19958;-65
2021/07/12 07:18:54;;;;;;;;;;;;;;;;;;5065197;28;19963;-64
2021/07/12 07:21:21;;;;;;;;;;;;;;;;;;5063162;28;19935;-65
2021/07/12 07:23:48;;;;;;;;;;;;;;;;;;5064876;28;19924;-64
2021/07/12 07:26:15;;;;;;;;;;;;;;;;;;5063586;28;19928;-65
2021/07/12 07:28:42;;;;;;;;;;;;;;;;;;5060529;28;19924;-64
2021/07/12 07:31:09;;;;;;;;;;;;;;;;;;5067038;28;19932;-64
2021/07/12 07:33:36;;;;;;;;;;;;;;;;;;5062832;28;19929;-65
2021/07/12 07:36:03;;;;;;;;;;;;;;;;;;5062399;28;20035;-64
2021/07/12 07:38:30;;;;;;;;;;;;;;;;;;5067831;28;19933;-65
2021/07/12 07:40:57;;;;;;;;;;;;;;;;;;5065383;28;19924;-65
2021/07/12 07:43:24;;;;;;;;;;;;;;;;;;5067166;28;20067;-65
2021/07/12 07:45:51;;;;;;;;;;;;;;;;;;5065094;28;19928;-65
2021/07/12 07:48:18;;;;;;;;;;;;;;;;;;5060614;28;19924;-66
2021/07/12 07:50:45;;;;;;;;;;;;;;;;;;5060131;28;19931;-64
2021/07/12 07:53:11;;;;;;;;;;;;;;;;;;5064903;28;20329;-65
2021/07/12 07:55:40;;;;;;;;;;;;;;;;;;5066295;28;19956;-65
2021/07/12 07:58:07;;;;;;;;;;;;;;;;;;5059797;28;19928;-65
2021/07/12 08:00:34;;;;;;;;;;;;;;;;;;5060615;28;19925;-64
2021/07/12 08:03:00;;;;;;;;;;;;;;;;;;5065808;28;20098;-65
2021/07/12 08:05:27;;;;;;;;;;;;;;;;;;5065359;28;20031;-65
2021/07/12 08:07:54;;;;;;;;;;;;;;;;;;5062268;28;19925;-65
2021/07/12 08:10:21;;;;;;;;;;;;;;;;;;5066001;28;19928;-65
2021/07/12 08:12:49;;;;;;;;;;;;;;;;;;5069317;28;19924;-66
2021/07/12 08:15:16;;;;;;;;;;;;;;;;;;5071076;28;19928;-66
2021/07/12 08:17:43;;;;;;;;;;;;;;;;;;5066431;28;19924;-64
2021/07/12 08:20:11;;;;;;;;;;;;;;;;;;5063885;28;19931;-65
2021/07/12 08:22:39;;;;;;;;;;;;;;;;;;5066260;28;19929;-65
2021/07/12 08:25:07;;;;;;;;;;;;;;;;;;5067246;28;20430;-65
2021/07/12 08:27:34;;;;;;;;;;;;;;;;;;5068020;28;19931;-66
2021/07/12 08:30:01;;;;;;;;;;;;;;;;;;5071913;28;20012;-65
2021/07/12 08:32:28;;;;;;;;;;;;;;;;;;5067264;28;19931;-65
2021/07/12 08:34:55;;;;;;;;;;;;;;;;;;5067337;28;20094;-65
2021/07/12 08:37:22;;;;;;;;;;;;;;;;;;5068309;28;19925;-64
2021/07/12 08:39:49;;;;;;;;;;;;;;;;;;5067480;28;19931;-66
2021/07/12 08:42:16;;;;;;;;;;;;;;;;;;5068415;28;20296;-66
2021/07/12 08:44:43;;;;;;;;;;;;;;;;;;5069951;28;19925;-65
2021/07/12 08:47:10;;;;;;;;;;;;;;;;;;5065398;28;19929;-65
2021/07/12 08:49:37;;;;;;;;;;;;;;;;;;5064771;28;19940;-65
2021/07/12 08:52:04;;;;;;;;;;;;;;;;;;5066160;28;20304;-66
2021/07/12 08:54:31;;;;;;;;;;;;;;;;;;5066218;28;19924;-66
2021/07/12 08:56:58;;;;;;;;;;;;;;;;;;5069256;28;19931;-66
2021/07/12 08:59:25;;;;;;;;;;;;;;;;;;5067514;28;19929;-65
2021/07/12 09:01:52;;;;;;;;;;;;;;;;;;5071257;28;19924;-65
2021/07/12 09:04:19;;;;;;;;;;;;;;;;;;5066174;28;19932;-65
2021/07/12 09:06:46;;;;;;;;;;;;;;;;;;5067559;28;19946;-65
2021/07/12 09:09:13;;;;;;;;;;;;;;;;;;5066297;28;19925;-66
2021/07/12 09:11:40;;;;;;;;;;;;;;;;;;5071635;28;19931;-67
2021/07/12 09:14:07;;;;;;;;;;;;;;;;;;5072155;28;20011;-66
2021/07/12 09:16:33;;;;;;;;;;;;;;;;;;5066291;28;19932;-67
2021/07/12 09:19:00;;;;;;;;;;;;;;;;;;5064186;28;19921;-65
2021/07/12 09:21:27;;;;;;;;;;;;;;;;;;5059912;28;20015;-64
2021/07/12 09:23:54;;;;;;;;;;;;;;;;;;5063793;28;20307;-65
2021/07/12 09:26:21;;;;;;;;;;;;;;;;;;5068430;28;19924;-64
2021/07/12 09:28:51;;;;;;;;;;;;;;;;;;5068643;28;20019;-65
2021/07/12 09:31:18;;;;;;;;;;;;;;;;;;5062800;28;19993;-65
2021/07/12 09:33:45;;;;;;;;;;;;;;;;;;5069578;28;19933;-64
2021/07/12 09:36:12;;;;;;;;;;;;;;;;;;5065825;28;19924;-66
2021/07/12 09:38:39;;;;;;;;;;;;;;;;;;5062623;28;20408;-68
2021/07/12 09:41:06;;;;;;;;;;;;;;;;;;5065187;28;19931;-66
2021/07/12 09:43:33;;;;;;;;;;;;;;;;;;5065898;28;19931;-65
2021/07/12 09:46:00;;;;;;;;;;;;;;;;;;5064610;28;20296;-64
2021/07/12 09:48:27;;;;;;;;;;;;;;;;;;5067473;28;19935;-64
2021/07/12 09:50:54;;;;;;;;;;;;;;;;;;5068133;28;19968;-66
2021/07/12 09:53:21;;;;;;;;;;;;;;;;;;5067608;28;20115;-64
2021/07/12 09:55:50;;;;;;;;;;;;;;;;;;5062850;28;20023;-67
2021/07/12 09:58:17;;;;;;;;;;;;;;;;;;5064770;28;19995;-65
2021/07/12 10:00:44;;;;;;;;;;;;;;;;;;5066664;28;19924;-65
2021/07/12 10:03:11;;;;;;;;;;;;;;;;;;5062763;28;19952;-66
2021/07/12 10:05:38;;;;;;;;;;;;;;;;;;5068445;28;20460;-65
2021/07/12 10:08:05;;;;;;;;;;;;;;;;;;5067798;28;19978;-67
2021/07/12 10:10:32;;;;;;;;;;;;;;;;;;5065076;28;19980;-66
2021/07/12 10:12:59;;;;;;;;;;;;;;;;;;5063703;28;19931;-66
2021/07/12 10:15:26;;;;;;;;;;;;;;;;;;5061366;28;20469;-67
2021/07/12 10:17:53;;;;;;;;;;;;;;;;;;5062656;28;19925;-67
2021/07/12 10:20:20;;;;;;;;;;;;;;;;;;5066169;28;19924;-66
2021/07/12 10:22:47;;;;;;;;;;;;;;;;;;5065249;28;19970;-68
2021/07/12 10:25:14;;;;;;;;;;;;;;;;;;5062774;28;19925;-67
2021/07/12 10:27:42;;;;;;;;;;;;;;;;;;5065330;28;19979;-67
2021/07/12 10:30:08;;;;;;;;;;;;;;;;;;5064769;28;20289;-65
2021/07/12 10:32:36;;;;;;;;;;;;;;;;;;5065008;28;19925;-67
2021/07/12 10:35:03;;;;;;;;;;;;;;;;;;5067377;28;19985;-65
2021/07/12 10:37:30;;;;;;;;;;;;;;;;;;5066070;28;20408;-66
2021/07/12 10:39:56;;;;;;;;;;;;;;;;;;5065242;28;20003;-66
2021/07/12 10:42:23;;;;;;;;;;;;;;;;;;5063540;28;19977;-66
2021/07/12 10:44:50;;;;;;;;;;;;;;;;;;5063609;28;19931;-66
2021/07/12 10:47:17;;;;;;;;;;;;;;;;;;5063063;28;19935;-67
2021/07/12 10:49:45;;;;;;;;;;;;;;;;;;5063797;28;19934;-65
2021/07/12 10:52:12;;;;;;;;;;;;;;;;;;5062795;28;19935;-65
2021/07/12 10:54:39;;;;;;;;;;;;;;;;;;5063521;28;20250;-69
2021/07/12 10:57:11;;;;;;;;;;;;;;;;;;5064729;28;20766;-67
2021/07/12 10:59:38;;;;;;;;;;;;;;;;;;5063908;28;20019;-66
2021/07/12 11:02:05;;;;;;;;;;;;;;;;;;5066791;28;20023;-67
2021/07/12 11:04:31;;;;;;;;;;;;;;;;;;5064514;28;19925;-66
2021/07/12 11:06:59;;;;;;;;;;;;;;;;;;5061541;28;20313;-65
2021/07/12 11:09:25;;;;;;;;;;;;;;;;;;5063365;28;19929;-66
2021/07/12 11:11:52;;;;;;;;;;;;;;;;;;5063742;28;19924;-66
2021/07/12 11:14:20;;;;;;;;;;;;;;;;;;5060798;28;20269;-65
2021/07/12 11:16:47;;;;;;;;;;;;;;;;;;5065758;28;19924;-68
2021/07/12 11:19:14;;;;;;;;;;;;;;;;;;5065947;28;20347;-65
2021/07/12 11:21:41;;;;;;;;;;;;;;;;;;5060219;28;19928;-65
2021/07/12 11:24:08;;;;;;;;;;;;;;;;;;5061303;28;20402;-68
2021/07/12 11:26:34;;;;;;;;;;;;;;;;;;5064461;28;20324;-66
2021/07/12 11:29:01;;;;;;;;;;;;;;;;;;5066906;28;19985;-66
2021/07/12 11:31:28;;;;;;;;;;;;;;;;;;5063099;28;19971;-66
2021/07/12 11:33:55;;;;;;;;;;;;;;;;;;5066223;28;19929;-64
2021/07/12 11:36:22;;;;;;;;;;;;;;;;;;5064818;28;19925;-66
2021/07/12 11:38:49;;;;;;;;;;;;;;;;;;5065085;28;19978;-64
2021/07/12 11:41:16;;;;;;;;;;;;;;;;;;5064156;28;20345;-68
2021/07/12 11:43:45;;;;;;;;;;;;;;;;;;5065851;28;19924;-64
2021/07/12 11:46:14;;;;;;;;;;;;;;;;;;5067759;28;19932;-65
2021/07/12 11:48:41;;;;;;;;;;;;;;;;;;5066576;28;19928;-67
2021/07/12 11:51:08;;;;;;;;;;;;;;;;;;5069575;28;19943;-64
2021/07/12 11:53:35;;;;;;;;;;;;;;;;;;5066777;28;20415;-64
2021/07/12 11:56:02;;;;;;;;;;;;;;;;;;5067794;28;20293;-65
2021/07/12 11:58:31;;;;;;;;;;;;;;;;;;5064792;28;20407;-64
2021/07/12 12:00:58;;;;;;;;;;;;;;;;;;5066436;28;20412;-68
2021/07/12 12:03:25;;;;;;;;;;;;;;;;;;5062196;28;19932;-65
2021/07/12 12:05:52;;;;;;;;;;;;;;;;;;5058015;28;19970;-67
2021/07/12 12:08:19;;;;;;;;;;;;;;;;;;5061664;28;19925;-63
2021/07/12 12:10:48;;;;;;;;;;;;;;;;;;5064797;28;20435;-65
2021/07/12 12:13:15;;;;;;;;;;;;;;;;;;5061195;28;19931;-64
2021/07/12 12:15:42;;;;;;;;;;;;;;;;;;5060317;28;19931;-66
2021/07/12 12:18:09;;;;;;;;;;;;;;;;;;5065474;28;20308;-65
2021/07/12 12:20:36;;;;;;;;;;;;;;;;;;5065686;28;19925;-67
2021/07/12 12:23:02;;;;;;;;;;;;;;;;;;5065180;28;20015;-67
2021/07/12 12:25:29;;;;;;;;;;;;;;;;;;5065374;28;20023;-64
2021/07/12 12:27:56;;;;;;;;;;;;;;;;;;5066163;28;20304;-65
2021/07/12 12:30:23;;;;;;;;;;;;;;;;;;5068017;28;20188;-66
2021/07/12 12:32:50;;;;;;;;;;;;;;;;;;5065573;28;19928;-67
2021/07/12 12:35:17;;;;;;;;;;;;;;;;;;5068388;28;19925;-65
2021/07/12 12:37:44;;;;;;;;;;;;;;;;;;5067213;28;19932;-65
2021/07/12 12:40:11;;;;;;;;;;;;;;;;;;5068189;28;19931;-68
2021/07/12 12:42:38;;;;;;;;;;;;;;;;;;5067095;28;19932;-67
2021/07/12 12:45:05;;;;;;;;;;;;;;;;;;5065453;28;19934;-66
2021/07/12 12:47:32;;;;;;;;;;;;;;;;;;5065860;28;20290;-66
2021/07/12 12:49:59;;;;;;;;;;;;;;;;;;5066466;28;19939;-66
2021/07/12 12:52:25;;;;;;;;;;;;;;;;;;5063367;28;19932;-66
2021/07/12 12:54:52;;;;;;;;;;;;;;;;;;5066169;28;20031;-67
2021/07/12 12:57:20;;;;;;;;;;;;;;;;;;5066505;28;19924;-67
2021/07/12 12:59:47;;;;;;;;;;;;;;;;;;5065307;28;19980;-67
2021/07/12 13:02:14;;;;;;;;;;;;;;;;;;5065863;28;19939;-67
2021/07/12 13:04:41;;;;;;;;;;;;;;;;;;5064921;28;19947;-67
2021/07/12 13:07:07;;;;;;;;;;;;;;;;;;5064972;28;20397;-68
2021/07/12 13:09:34;;;;;;;;;;;;;;;;;;5067029;28;20741;-65
2021/07/12 13:12:01;;;;;;;;;;;;;;;;;;5066491;28;19931;-66
2021/07/12 13:14:28;;;;;;;;;;;;;;;;;;5065258;28;20204;-67
2021/07/12 13:16:55;;;;;;;;;;;;;;;;;;5060787;28;19973;-67
2021/07/12 13:19:22;;;;;;;;;;;;;;;;;;5064775;28;19924;-69
2021/07/12 13:21:49;;;;;;;;;;;;;;;;;;5066791;28;20288;-67
2021/07/12 13:24:17;;;;;;;;;;;;;;;;;;5067225;28;20407;-66
2021/07/12 13:26:44;;;;;;;;;;;;;;;;;;5063909;28;19933;-67
2021/07/12 13:29:11;;;;;;;;;;;;;;;;;;5064068;28;19935;-68
2021/07/12 13:31:38;;;;;;;;;;;;;;;;;;5065300;28;19929;-68
2021/07/12 13:34:05;;;;;;;;;;;;;;;;;;5065801;28;19925;-72
2021/07/12 13:36:32;;;;;;;;;;;;;;;;;;5067403;28;19932;-67
2021/07/12 13:38:59;;;;;;;;;;;;;;;;;;5064802;28;19924;-68
2021/07/12 13:41:26;;;;;;;;;;;;;;;;;;5062190;28;19932;-65
2021/07/12 13:43:53;;;;;;;;;;;;;;;;;;5068573;28;19924;-68
2021/07/12 13:46:20;;;;;;;;;;;;;;;;;;5068207;28;19924;-67
2021/07/12 13:48:47;;;;;;;;;;;;;;;;;;5066311;28;20407;-66
2021/07/12 13:51:14;;;;;;;;;;;;;;;;;;5064976;28;19939;-67
2021/07/12 13:53:42;;;;;;;;;;;;;;;;;;5065420;28;19951;-67
2021/07/12 13:56:08;;;;;;;;;;;;;;;;;;5062875;28;19928;-67
2021/07/12 13:58:35;;;;;;;;;;;;;;;;;;5065474;28;19931;-67
2021/07/12 14:01:02;;;;;;;;;;;;;;;;;;5066479;28;19971;-68
2021/07/12 14:03:30;;;;;;;;;;;;;;;;;;5065148;28;19924;-67
2021/07/12 14:05:57;;;;;;;;;;;;;;;;;;5069156;28;19924;-69
2021/07/12 14:08:24;;;;;;;;;;;;;;;;;;5066012;28;19924;-68
2021/07/12 14:10:51;;;;;;;;;;;;;;;;;;5064187;28;19930;-66
2021/07/12 14:13:18;;;;;;;;;;;;;;;;;;5064466;28;19960;-68
2021/07/12 14:15:45;;;;;;;;;;;;;;;;;;5065916;28;19932;-66
2021/07/12 14:18:12;;;;;;;;;;;;;;;;;;5065609;28;19928;-67
2021/07/12 14:20:38;;;;;;;;;;;;;;;;;;5067421;28;19928;-67
2021/07/12 14:23:05;;;;;;;;;;;;;;;;;;5065197;28;19925;-66
2021/07/12 14:25:32;;;;;;;;;;;;;;;;;;5066392;28;20180;-65
2021/07/12 14:27:59;;;;;;;;;;;;;;;;;;5064673;28;19946;-67
2021/07/12 14:30:26;;;;;;;;;;;;;;;;;;5067135;28;19924;-67
2021/07/12 14:32:53;;;;;;;;;;;;;;;;;;5064311;28;19925;-68
2021/07/12 14:35:22;;;;;;;;;;;;;;;;;;5063514;28;20031;-66
2021/07/12 14:37:49;;;;;;;;;;;;;;;;;;5065017;28;20071;-68
2021/07/12 14:40:17;;;;;;;;;;;;;;;;;;5064467;28;19951;-66
2021/07/12 14:42:44;;;;;;;;;;;;;;;;;;5064943;28;19929;-67
2021/07/12 14:45:11;;;;;;;;;;;;;;;;;;5065354;28;20399;-67
2021/07/12 14:47:37;;;;;;;;;;;;;;;;;;5062311;28;19925;-67
2021/07/12 14:50:04;;;;;;;;;;;;;;;;;;5058587;28;19931;-68
2021/07/12 14:52:31;;;;;;;;;;;;;;;;;;5065519;28;19924;-67
2021/07/12 14:54:58;;;;;;;;;;;;;;;;;;5065041;28;19974;-67
2021/07/12 14:57:25;;;;;;;;;;;;;;;;;;5063738;28;19924;-66
2021/07/12 14:59:52;;;;;;;;;;;;;;;;;;5065249;28;20023;-65
2021/07/12 15:02:19;;;;;;;;;;;;;;;;;;5062741;28;19924;-64
2021/07/12 15:04:47;;;;;;;;;;;;;;;;;;5060299;28;20023;-65
2021/07/12 15:07:14;;;;;;;;;;;;;;;;;;5062415;28;19935;-66
2021/07/12 15:09:41;;;;;;;;;;;;;;;;;;5062885;28;19924;-65
2021/07/12 15:12:08;;;;;;;;;;;;;;;;;;5060719;28;19929;-64
2021/07/12 15:14:35;;;;;;;;;;;;;;;;;;5063553;28;19928;-65
2021/07/12 15:17:02;;;;;;;;;;;;;;;;;;5063124;28;20043;-64
2021/07/12 15:19:29;;;;;;;;;;;;;;;;;;5065681;28;19928;-68
2021/07/12 15:21:56;;;;;;;;;;;;;;;;;;5066284;28;19975;-66
2021/07/12 15:24:24;;;;;;;;;;;;;;;;;;5068436;28;19928;-66
2021/07/12 15:26:52;;;;;;;;;;;;;;;;;;5066834;28;19924;-65
2021/07/12 15:29:19;;;;;;;;;;;;;;;;;;5072053;28;20379;-65
2021/07/12 15:31:47;;;;;;;;;;;;;;;;;;5068877;28;20389;-66
2021/07/12 15:34:14;;;;;;;;;;;;;;;;;;5067804;28;19931;-66
2021/07/12 15:36:41;;;;;;;;;;;;;;;;;;5066703;28;19932;-66
2021/07/12 15:39:08;;;;;;;;;;;;;;;;;;5070979;28;19924;-66
2021/07/12 15:41:35;;;;;;;;;;;;;;;;;;5069266;28;19948;-66
2021/07/12 15:44:02;;;;;;;;;;;;;;;;;;5072967;28;19982;-66
2021/07/12 15:46:29;;;;;;;;;;;;;;;;;;5070638;28;19925;-66
2021/07/12 15:48:56;;;;;;;;;;;;;;;;;;5070457;28;19929;-66
2021/07/12 15:51:24;;;;;;;;;;;;;;;;;;5069863;28;20410;-66
2021/07/12 15:53:51;;;;;;;;;;;;;;;;;;5073511;28;19951;-66
2021/07/12 15:56:18;;;;;;;;;;;;;;;;;;5072907;28;19936;-66
2021/07/12 15:58:45;;;;;;;;;;;;;;;;;;5072670;28;20019;-66
2021/07/12 16:01:12;;;;;;;;;;;;;;;;;;5072379;28;20122;-66
2021/07/12 16:03:39;;;;;;;;;;;;;;;;;;5070922;28;20452;-66
2021/07/12 16:06:06;;;;;;;;;;;;;;;;;;5070601;28;19924;-66
2021/07/12 16:08:33;;;;;;;;;;;;;;;;;;5070880;28;19932;-66
2021/07/12 16:11:01;;;;;;;;;;;;;;;;;;5070497;28;19932;-66
2021/07/12 16:13:28;;;;;;;;;;;;;;;;;;5069753;28;19936;-65
2021/07/12 16:15:55;;;;;;;;;;;;;;;;;;5071906;28;19931;-66
2021/07/12 16:18:22;;;;;;;;;;;;;;;;;;5068343;28;19924;-65
2021/07/12 16:20:50;;;;;;;;;;;;;;;;;;5072893;28;20053;-64
2021/07/12 16:23:18;;;;;;;;;;;;;;;;;;5069338;28;19926;-67
2021/07/12 16:25:45;;;;;;;;;;;;;;;;;;5069166;28;20657;-67
2021/07/12 16:28:12;;;;;;;;;;;;;;;;;;5069447;28;19970;-67
2021/07/12 16:30:39;;;;;;;;;;;;;;;;;;5068066;28;19932;-67
2021/07/12 16:33:05;;;;;;;;;;;;;;;;;;5067349;28;20285;-67
2021/07/12 16:35:32;;;;;;;;;;;;;;;;;;5065280;28;20377;-67
2021/07/12 16:37:59;;;;;;;;;;;;;;;;;;5068666;28;20308;-67
2021/07/12 16:40:26;;;;;;;;;;;;;;;;;;5068949;28;20380;-67
2021/07/12 16:42:53;;;;;;;;;;;;;;;;;;5066767;28;19924;-67